createdAt,value
2022-08-05T00:00:00.600Z,22.30
2022-08-05T00:06:04.823Z,22.20
2022-08-05T00:12:09.559Z,22.10
2022-08-05T00:18:06.790Z,22.20
2022-08-05T00:24:10.756Z,22.30
2022-08-05T00:30:05.389Z,22.10
2022-08-05T00:36:14.976Z,21.90
2022-08-05T00:42:31.628Z,22.10
2022-08-05T00:48:27.516Z,22.00
2022-08-05T00:54:27.995Z,22.00
2022-08-05T01:00:22.615Z,21.70
2022-08-05T01:06:19.411Z,21.70
2022-08-05T01:12:17.897Z,21.70
2022-08-05T01:18:17.168Z,21.70
2022-08-05T01:24:24.479Z,21.60
2022-08-05T01:30:33.609Z,21.50
2022-08-05T01:36:32.617Z,21.40
2022-08-05T01:42:28.090Z,21.20
2022-08-05T01:48:24.321Z,21.50
2022-08-05T01:54:20.363Z,21.20
2022-08-05T02:00:20.107Z,21.30
2022-08-05T02:06:37.493Z,21.30
2022-08-05T02:12:38.189Z,21.50
2022-08-05T02:18:35.492Z,21.30
2022-08-05T02:24:42.214Z,21.20
2022-08-05T02:30:54.820Z,21.20
2022-08-05T02:36:54.798Z,21.20
2022-08-05T02:42:53.100Z,21.20
2022-08-05T02:48:48.859Z,21.00
2022-08-05T02:54:51.097Z,21.10
2022-08-05T03:00:47.811Z,20.60
2022-08-05T03:06:56.726Z,20.80
2022-08-05T03:12:53.147Z,20.80
2022-08-05T03:18:47.864Z,20.90
2022-08-05T03:24:42.364Z,20.80
2022-08-05T03:30:40.991Z,20.90
2022-08-05T03:36:35.712Z,20.90
2022-08-05T03:42:32.222Z,20.60
2022-08-05T03:48:26.802Z,20.50
2022-08-05T03:55:53.363Z,20.50
2022-08-05T04:00:51.369Z,20.50
2022-08-05T04:06:47.893Z,20.10
2022-08-05T04:12:46.190Z,20.10
2022-08-05T04:18:40.941Z,20.30
2022-08-05T04:24:35.176Z,20.20
2022-08-05T04:30:30.197Z,20.30
2022-08-05T04:36:44.911Z,20.20
2022-08-05T04:42:37.759Z,19.70
2022-08-05T04:48:36.134Z,20.00
2022-08-05T04:54:29.785Z,19.90
2022-08-05T05:00:23.393Z,20.00
2022-08-05T05:06:39.458Z,20.00
2022-08-05T05:12:34.005Z,20.10
2022-08-05T05:18:31.441Z,19.90
2022-08-05T05:24:57.131Z,20.10
2022-08-05T05:30:42.307Z,20.10
2022-08-05T05:36:37.417Z,20.00
2022-08-05T05:42:33.662Z,20.10
2022-08-05T05:48:27.971Z,20.10
2022-08-05T05:54:21.221Z,20.30
2022-08-05T06:00:17.789Z,20.20
2022-08-05T06:06:10.831Z,20.20
2022-08-05T06:12:03.897Z,20.10
2022-08-05T06:17:58.610Z,19.90
2022-08-05T06:23:52.060Z,20.10
2022-08-05T06:29:49.455Z,20.10
2022-08-05T06:36:07.428Z,20.30
2022-08-05T06:42:03.861Z,20.00
2022-08-05T06:48:37.478Z,20.00
2022-08-05T06:54:18.996Z,20.20
2022-08-05T07:00:13.479Z,20.10
2022-08-05T07:06:15.775Z,20.10
2022-08-05T07:12:34.483Z,20.10
2022-08-05T07:18:30.761Z,20.20
2022-08-05T07:24:24.688Z,20.20
2022-08-05T07:30:27.046Z,20.50
2022-08-05T07:36:21.925Z,20.20
2022-08-05T07:42:16.186Z,20.00
2022-08-05T07:48:10.859Z,20.00
2022-08-05T07:54:03.882Z,20.30
2022-08-05T07:59:56.904Z,20.00
2022-08-05T08:05:52.749Z,20.00
2022-08-05T08:11:51.293Z,20.00
2022-08-05T08:17:53.264Z,20.00
2022-08-05T08:24:02.806Z,19.90
2022-08-05T08:30:05.729Z,20.00
2022-08-05T08:36:48.810Z,20.00
2022-08-05T08:42:38.357Z,20.00
2022-08-05T08:49:06.213Z,19.90
2022-08-05T08:54:56.939Z,20.00
2022-08-05T09:00:52.785Z,19.90
2022-08-05T09:06:45.897Z,19.80
2022-08-05T09:12:43.003Z,20.00
2022-08-05T09:18:45.898Z,20.00
2022-08-05T09:24:39.326Z,20.00
2022-08-05T09:30:32.450Z,20.10
2022-08-05T09:36:55.157Z,19.90
2022-08-05T09:42:52.304Z,19.80
2022-08-05T09:49:06.743Z,19.90
2022-08-05T09:55:55.123Z,20.10
2022-08-05T10:01:22.684Z,19.90
2022-08-05T10:07:31.983Z,19.90
2022-08-05T10:13:47.288Z,20.00
2022-08-05T10:20:02.954Z,19.80
2022-08-05T10:25:56.717Z,19.90
2022-08-05T10:32:52.972Z,19.90
2022-08-05T10:38:06.429Z,19.80
2022-08-05T10:44:07.079Z,19.70
2022-08-05T10:50:32.564Z,19.80
2022-08-05T10:56:27.380Z,20.00
2022-08-05T11:02:37.678Z,19.90
2022-08-05T11:08:37.860Z,19.90
2022-08-05T11:20:51.397Z,19.80
2022-08-05T11:26:49.761Z,19.70
2022-08-05T11:32:43.295Z,19.60
2022-08-05T11:39:01.683Z,19.60
2022-08-05T11:45:03.571Z,19.70
2022-08-05T11:50:58.953Z,19.60
2022-08-05T11:56:54.872Z,19.50
2022-08-05T12:02:50.605Z,19.40
2022-08-05T12:08:49.787Z,19.40
2022-08-05T12:14:47.410Z,19.40
2022-08-05T12:20:41.821Z,19.50
2022-08-05T12:26:36.398Z,19.50
2022-08-05T12:32:30.202Z,19.30
2022-08-05T12:38:31.381Z,19.40
2022-08-05T12:44:33.392Z,19.60
2022-08-05T12:50:27.788Z,19.50
2022-08-05T12:56:35.390Z,19.80
2022-08-05T13:02:31.234Z,19.40
2022-08-05T13:08:26.895Z,19.60
2022-08-05T13:14:24.660Z,19.80
2022-08-05T13:20:40.467Z,20.20
2022-08-05T13:26:34.134Z,20.00
2022-08-05T13:32:33.001Z,19.40
2022-08-05T13:38:34.223Z,19.40
2022-08-05T13:44:29.466Z,20.00
2022-08-05T13:50:24.234Z,20.80
2022-08-05T13:56:19.105Z,21.30
2022-08-05T14:02:20.050Z,21.60
2022-08-05T14:08:20.569Z,21.80
2022-08-05T14:14:25.484Z,20.90
2022-08-05T14:20:27.432Z,20.70
2022-08-05T14:26:38.404Z,20.60
2022-08-05T14:32:33.222Z,20.70
2022-08-05T14:38:32.557Z,20.60
2022-08-05T14:44:30.108Z,20.70
2022-08-05T14:50:25.181Z,20.70
2022-08-05T14:56:22.807Z,20.70
2022-08-05T15:02:20.571Z,19.90
2022-08-05T15:08:17.885Z,19.90
2022-08-05T15:14:34.525Z,19.90
2022-08-05T15:20:31.603Z,19.60
2022-08-05T15:26:31.692Z,19.70
2022-08-05T15:32:25.887Z,20.20
2022-08-05T15:38:34.179Z,20.10
2022-08-05T15:44:30.817Z,20.30
2022-08-05T15:50:25.228Z,20.20
2022-08-05T15:56:21.239Z,19.70
2022-08-05T16:02:14.508Z,19.60
2022-08-05T16:08:16.113Z,19.40
2022-08-05T16:14:17.367Z,19.20
2022-08-05T16:20:12.410Z,19.20
2022-08-05T16:26:07.350Z,19.60
2022-08-05T16:32:01.837Z,19.80
2022-08-05T16:38:03.269Z,19.70
2022-08-05T16:44:11.451Z,19.40
2022-08-05T16:50:08.564Z,19.50
2022-08-05T16:56:01.959Z,19.40
2022-08-05T17:01:56.095Z,19.20
2022-08-05T17:07:54.470Z,19.10
2022-08-05T17:13:48.514Z,19.30
2022-08-05T17:19:45.393Z,19.30
2022-08-05T17:25:41.036Z,19.20
2022-08-05T17:31:41.267Z,18.70
2022-08-05T17:37:48.441Z,18.70
2022-08-05T17:43:50.633Z,18.80
2022-08-05T17:49:59.510Z,18.80
2022-08-05T17:55:54.470Z,18.90
2022-08-05T18:01:50.343Z,18.80
2022-08-05T18:07:43.949Z,18.80
2022-08-05T18:13:44.095Z,18.70
2022-08-05T18:19:39.072Z,18.70
2022-08-05T18:25:39.211Z,18.50
2022-08-05T18:31:35.422Z,18.20
2022-08-05T18:37:34.335Z,18.00
2022-08-05T18:43:38.240Z,17.70
2022-08-05T18:49:57.859Z,17.80
2022-08-05T18:55:54.020Z,17.50
2022-08-05T19:01:57.098Z,17.60
2022-08-05T19:07:53.600Z,17.50
2022-08-05T19:13:48.524Z,17.50
2022-08-05T19:19:55.642Z,17.40
2022-08-05T19:25:48.994Z,17.40
2022-08-05T19:31:44.885Z,17.50
2022-08-05T19:38:05.869Z,17.50
2022-08-05T19:44:06.823Z,17.50
2022-08-05T19:50:12.050Z,17.60
2022-08-05T19:56:14.766Z,17.60
2022-08-05T20:02:20.286Z,17.60
2022-08-05T20:08:15.543Z,17.60
2022-08-05T20:14:14.351Z,17.40
2022-08-05T20:20:11.603Z,17.30
2022-08-05T20:26:06.459Z,17.60
2022-08-05T20:31:59.933Z,17.40
2022-08-05T20:38:05.419Z,17.40
2022-08-05T20:44:19.142Z,17.40
2022-08-05T20:50:16.445Z,17.40
2022-08-05T20:56:11.456Z,17.20
2022-08-05T21:02:06.600Z,17.10
2022-08-05T21:08:00.707Z,17.10
2022-08-05T21:13:56.769Z,17.20
2022-08-05T21:19:52.433Z,17.00
2022-08-05T21:25:45.847Z,16.90
2022-08-05T21:31:41.997Z,16.90
2022-08-05T21:37:41.461Z,16.90
2022-08-05T21:43:41.826Z,16.50
2022-08-05T21:49:48.247Z,16.50
2022-08-05T21:56:06.258Z,16.40
2022-08-05T22:02:04.772Z,16.30
2022-08-05T22:08:02.463Z,16.40
2022-08-05T22:14:32.329Z,16.40
2022-08-05T22:20:15.307Z,16.50
2022-08-05T22:26:27.797Z,16.40
2022-08-05T22:32:24.333Z,16.50
2022-08-05T22:38:20.080Z,16.50
2022-08-05T22:44:13.315Z,16.50
2022-08-05T22:50:19.231Z,16.40
2022-08-05T22:56:17.281Z,16.50
2022-08-05T23:02:29.430Z,16.40
2022-08-05T23:08:24.828Z,16.40
2022-08-05T23:14:22.680Z,16.30
2022-08-05T23:20:25.810Z,16.20
2022-08-05T23:26:20.821Z,16.10
2022-08-05T23:32:15.253Z,15.80
2022-08-05T23:38:11.959Z,15.60
2022-08-05T23:44:08.758Z,15.50
2022-08-05T23:50:02.461Z,15.50
2022-08-05T23:56:03.634Z,15.50
